createdAt,value
2022-11-15T00:00:58.944Z,99770.20
2022-11-15T00:11:05.635Z,99760.15
2022-11-15T00:21:14.820Z,99755.83
2022-11-15T00:31:20.555Z,99744.16
2022-11-15T00:41:26.214Z,99737.83
2022-11-15T00:51:31.858Z,99729.80
2022-11-15T01:01:38.011Z,99718.20
2022-11-15T01:11:44.010Z,99708.17
2022-11-15T01:21:52.495Z,99693.88
2022-11-15T01:31:58.384Z,99681.52
2022-11-15T01:42:04.603Z,99668.42
2022-11-15T01:52:15.322Z,99651.61
2022-11-15T02:02:21.208Z,99639.30
2022-11-15T02:12:27.428Z,99627.34
2022-11-15T02:22:46.491Z,99627.93
2022-11-15T02:32:59.351Z,99617.77
2022-11-15T02:43:28.363Z,99611.22
2022-11-15T02:53:35.079Z,99605.80
2022-11-15T03:03:58.521Z,99600.02
2022-11-15T03:14:10.658Z,99584.91
2022-11-15T03:24:25.642Z,99587.04
2022-11-15T03:34:34.345Z,99580.69
2022-11-15T03:44:48.665Z,99572.37
2022-11-15T03:54:57.326Z,99567.13
2022-11-15T04:05:03.384Z,99561.57
2022-11-15T04:15:12.437Z,99552.70
2022-11-15T04:25:22.887Z,99542.38
2022-11-15T04:35:29.123Z,99524.70
2022-11-15T04:45:35.105Z,99521.35
2022-11-15T04:55:40.810Z,99515.99
2022-11-15T05:05:46.546Z,99508.63
2022-11-15T05:15:52.179Z,99510.93
2022-11-15T05:26:07.907Z,99508.48
2022-11-15T05:36:19.911Z,99504.79
2022-11-15T05:46:25.657Z,99495.87
2022-11-15T05:56:32.335Z,99491.98
2022-11-15T06:06:38.210Z,99487.56
2022-11-15T06:16:43.899Z,99484.98
2022-11-15T06:26:49.474Z,99480.92
2022-11-15T06:36:55.063Z,99473.77
2022-11-15T06:47:00.578Z,99473.44
2022-11-15T06:57:07.505Z,99481.34
2022-11-15T07:07:13.135Z,99481.02
2022-11-15T07:17:18.707Z,99480.17
2022-11-15T07:27:24.345Z,99479.63
2022-11-15T07:37:30.175Z,99477.33
2022-11-15T07:47:35.964Z,99484.80
2022-11-15T07:57:41.718Z,99470.35
2022-11-15T08:07:47.371Z,99455.48
2022-11-15T08:17:57.444Z,99453.13
2022-11-15T08:28:04.545Z,99443.34
2022-11-15T08:38:10.213Z,99427.14
2022-11-15T08:48:15.825Z,99412.91
2022-11-15T08:58:21.531Z,99397.06
2022-11-15T09:18:54.318Z,99377.89
2022-11-15T09:29:00.149Z,99381.05
2022-11-15T09:39:05.827Z,99376.53
2022-11-15T09:49:15.506Z,99368.43
2022-11-15T09:59:33.903Z,99355.88
2022-11-15T10:09:45.951Z,99342.34
2022-11-15T10:20:05.276Z,99336.05
2022-11-15T10:30:17.114Z,99327.23
2022-11-15T10:40:25.402Z,99307.86
2022-11-15T10:50:34.624Z,99295.43
2022-11-15T11:00:41.229Z,99283.42
2022-11-15T11:11:02.044Z,99274.80
2022-11-15T11:21:16.519Z,99267.34
2022-11-15T11:31:34.528Z,99255.57
2022-11-15T11:41:51.471Z,99246.54
2022-11-15T11:52:02.747Z,99238.13
2022-11-15T12:02:18.434Z,99231.15
2022-11-15T12:12:29.801Z,99218.23
2022-11-15T12:22:43.916Z,99199.73
2022-11-15T12:32:59.199Z,99189.62
2022-11-15T12:43:19.896Z,99180.80
2022-11-15T12:53:33.885Z,99173.64
2022-11-15T13:04:14.590Z,99165.83
2022-11-15T13:14:57.474Z,99160.95
2022-11-15T13:25:04.567Z,99156.08
2022-11-15T13:35:10.563Z,99151.28
2022-11-15T13:45:19.236Z,99144.87
2022-11-15T13:55:27.807Z,99136.55
2022-11-15T14:05:33.791Z,99131.67
2022-11-15T14:15:41.455Z,99119.72
2022-11-15T14:25:56.336Z,99124.26
2022-11-15T14:36:08.093Z,99114.47
2022-11-15T14:46:13.737Z,99104.54
2022-11-15T14:56:19.462Z,99092.05
2022-11-15T15:06:25.298Z,99079.55
2022-11-15T15:16:30.885Z,99078.87
2022-11-15T15:26:37.613Z,99078.86
2022-11-15T15:36:43.252Z,99084.33
2022-11-15T15:46:48.947Z,99089.27
2022-11-15T15:56:56.337Z,99082.02
2022-11-15T16:07:04.027Z,99081.25
2022-11-15T16:17:12.415Z,99083.45
2022-11-15T16:27:20.572Z,99081.11
2022-11-15T16:37:26.644Z,99077.55
2022-11-15T16:47:32.402Z,99072.44
2022-11-15T16:57:38.350Z,99065.89
2022-11-15T17:07:45.673Z,99066.33
2022-11-15T17:17:55.809Z,99064.34
2022-11-15T17:28:01.432Z,99053.30
2022-11-15T17:38:07.254Z,99052.50
2022-11-15T17:48:12.831Z,99041.45
2022-11-15T17:58:18.761Z,99038.10
2022-11-15T18:08:24.323Z,99037.09
2022-11-15T18:18:30.483Z,99029.76
2022-11-15T18:28:38.649Z,99023.89
2022-11-15T18:38:44.274Z,99014.34
2022-11-15T18:48:51.723Z,99003.98
2022-11-15T18:58:56.904Z,99011.31
2022-11-15T19:09:02.854Z,99016.80
2022-11-15T19:19:12.480Z,99017.43
2022-11-15T19:29:18.373Z,99019.91
2022-11-15T19:39:24.491Z,99010.55
2022-11-15T19:49:30.276Z,99003.55
2022-11-15T19:59:36.029Z,99001.10
2022-11-15T20:09:41.981Z,98998.33
2022-11-15T20:19:47.858Z,99001.65
2022-11-15T20:29:54.650Z,99006.69
2022-11-15T20:40:00.332Z,98998.27
2022-11-15T20:50:35.460Z,98981.64
2022-11-15T21:00:32.524Z,98970.72
2022-11-15T21:10:56.529Z,98975.67
2022-11-15T21:21:06.760Z,98971.30
2022-11-15T21:31:12.526Z,98953.58
2022-11-15T21:41:18.281Z,98945.71
2022-11-15T21:51:24.786Z,98945.18
2022-11-15T22:01:56.994Z,98921.45
2022-11-15T22:12:02.906Z,98926.17
2022-11-15T22:22:08.814Z,98931.44
2022-11-15T22:32:14.873Z,98921.81
2022-11-15T22:42:23.739Z,98912.52
2022-11-15T22:52:30.320Z,98908.81
2022-11-15T23:02:36.349Z,98890.89
2022-11-15T23:12:59.736Z,98885.45
2022-11-15T23:23:05.757Z,98887.36
2022-11-15T23:33:33.394Z,98885.27
2022-11-15T23:43:39.252Z,98884.77
2022-11-15T23:53:45.405Z,98882.80
